Time;durP1;ratioP1;P1;durP2;ratioP2;P2;SDS_P1;SDS_P2;PMS_P1;PMS_P2;Temp;Humidity;BMP_temperature;BMP_pressure;BME280_temperature;BME280_humidity;BME280_pressure;Samples;Min_cycle;Max_cycle;Signal;HPM_P1;HPM_P2
2023/10/27 00:00:34;;;;;;;2.88;0.60;;;;;;;16.60;100.00;92425.19;5075636;28;20028;-85
2023/10/27 00:03:00;;;;;;;3.45;0.93;;;;;;;16.73;100.00;92425.78;5084932;28;20341;-86
2023/10/27 00:05:25;;;;;;;1.77;0.55;;;;;;;16.84;100.00;92436.53;5078953;28;20524;-86
2023/10/27 00:07:51;;;;;;;8.85;0.80;;;;;;;16.91;100.00;92412.84;5083177;28;20036;-86
2023/10/27 00:10:35;;;;;;;3.40;0.73;;;;;;;16.79;100.00;92397.94;5091256;28;20040;-85
2023/10/27 00:13:19;;;;;;;1.75;0.68;;;;;;;16.60;100.00;92422.56;5083323;28;20158;-86
2023/10/27 00:15:45;;;;;;;2.25;0.98;;;;;;;16.66;100.00;92415.88;5093192;28;20119;-86
2023/10/27 00:18:11;;;;;;;3.35;0.60;;;;;;;16.77;100.00;92389.59;5091935;28;20488;-86
2023/10/27 00:20:36;;;;;;;4.38;0.70;;;;;;;16.67;100.00;92412.09;5095297;28;20099;-85
2023/10/27 00:23:02;;;;;;;8.10;0.90;;;;;;;16.61;100.00;92389.72;5096551;28;20031;-86
2023/10/27 00:25:27;;;;;;;5.15;0.40;;;;;;;16.57;100.00;92394.97;5095297;28;20349;-85
2023/10/27 00:30:36;;;;;;;;;;;;;;;16.79;100.00;92390.78;5095763;28;20544;-85
2023/10/27 00:36:42;;;;;;;7.22;0.80;;;;;;;16.70;100.00;92384.94;5096453;28;20249;-86
2023/10/27 00:39:26;;;;;;;1.55;0.55;;;;;;;16.28;100.00;92367.28;5089521;28;20070;-85
2023/10/27 00:42:10;;;;;;;1.73;0.60;;;;;;;16.25;100.00;92376.66;5076403;28;20111;-85
2023/10/27 00:44:35;;;;;;;4.80;0.63;;;;;;;16.51;100.00;92381.28;5076136;28;20024;-86
2023/10/27 00:47:01;;;;;;;4.57;0.93;;;;;;;16.68;100.00;92360.75;5058346;28;20031;-86
2023/10/27 00:49:27;;;;;;;4.00;0.77;;;;;;;17.08;100.00;92372.69;5074928;28;20070;-86
2023/10/27 00:52:31;;;;;;;3.60;0.75;;;;;;;17.27;100.00;92357.81;5074916;28;20024;-86
2023/10/27 00:54:56;;;;;;;2.03;0.60;;;;;;;17.23;100.00;92349.81;5075090;28;20046;-85
2023/10/27 00:57:25;;;;;;;4.13;0.60;;;;;;;17.09;100.00;92352.28;5074855;28;20123;-86
2023/10/27 00:59:51;;;;;;;3.78;0.50;;;;;;;17.12;100.00;92348.16;5059020;28;20031;-85
2023/10/27 01:02:18;;;;;;;5.82;0.60;;;;;;;16.77;100.00;92332.16;5058178;28;20047;-86
2023/10/27 01:05:02;;;;;;;3.50;0.75;;;;;;;17.00;100.00;92341.97;5074798;28;20024;-86
2023/10/27 01:07:47;;;;;;;3.67;0.52;;;;;;;16.95;100.00;92337.72;5078247;28;20051;-86
2023/10/27 01:10:12;;;;;;;2.15;0.70;;;;;;;17.01;100.00;92332.91;5078147;28;20061;-86
2023/10/27 01:12:38;;;;;;;5.82;0.80;;;;;;;16.91;100.00;92328.97;5078128;28;20345;-86
2023/10/27 01:15:03;;;;;;;3.67;0.70;;;;;;;16.63;100.00;92327.44;5078510;28;20461;-85
2023/10/27 01:17:29;;;;;;;3.58;0.75;;;;;;;16.68;100.00;92321.84;5061930;28;20021;-86
2023/10/27 01:19:54;;;;;;;3.80;0.52;;;;;;;16.63;100.00;92311.59;5061331;28;20036;-86
2023/10/27 01:22:19;;;;;;;2.83;0.43;;;;;;;16.50;100.00;92303.09;5079176;28;20445;-86
2023/10/27 01:24:45;;;;;;;3.35;0.70;;;;;;;16.55;100.00;92288.78;5078327;28;20346;-86
2023/10/27 01:27:10;;;;;;;1.02;0.30;;;;;;;16.41;100.00;92286.72;5077732;28;20032;-86
2023/10/27 01:29:39;;;;;;;3.60;0.50;;;;;;;16.39;100.00;92276.50;5061783;28;20028;-86
2023/10/27 01:32:04;;;;;;;5.43;0.77;;;;;;;16.36;100.00;92282.50;5078931;28;20036;-86
2023/10/27 01:34:30;;;;;;;1.45;0.57;;;;;;;16.35;100.00;92272.25;5086500;28;20038;-86
2023/10/27 01:36:55;;;;;;;3.97;0.50;;;;;;;16.01;100.00;92274.75;5098037;28;20093;-86
2023/10/27 01:39:21;;;;;;;2.35;0.43;;;;;;;16.11;100.00;92261.72;5081250;28;20044;-86
2023/10/27 01:41:46;;;;;;;2.53;0.50;;;;;;;15.95;100.00;92266.38;5092734;28;20023;-86
2023/10/27 01:44:12;;;;;;;4.95;0.90;;;;;;;15.73;100.00;92238.81;5079096;28;20089;-85
2023/10/27 01:46:37;;;;;;;4.93;0.80;;;;;;;15.63;100.00;92240.91;5077645;28;20028;-85
2023/10/27 01:49:03;;;;;;;2.92;0.70;;;;;;;15.64;100.00;92234.53;5077555;28;20122;-85
2023/10/27 01:51:28;;;;;;;4.25;0.63;;;;;;;15.80;100.00;92231.03;5067012;28;20084;-85
2023/10/27 01:53:54;;;;;;;1.95;0.60;;;;;;;16.06;100.00;92222.41;5097441;28;20031;-86
2023/10/27 01:56:19;;;;;;;3.63;0.60;;;;;;;16.07;100.00;92233.75;5067701;28;20464;-86
2023/10/27 01:58:45;;;;;;;5.28;0.90;;;;;;;16.12;100.00;92228.16;5085693;28;20024;-86
2023/10/27 02:01:12;;;;;;;3.47;0.60;;;;;;;16.22;100.00;92219.63;5080774;28;20028;-86
2023/10/27 02:03:38;;;;;;;3.78;0.77;;;;;;;16.26;100.00;92246.09;5097492;28;20024;-85
2023/10/27 02:06:03;;;;;;;3.88;0.80;;;;;;;15.94;100.00;92241.06;5097669;28;20035;-86
2023/10/27 02:08:29;;;;;;;3.35;0.60;;;;;;;16.02;100.00;92240.09;5097715;28;20036;-86
2023/10/27 02:11:13;;;;;;;3.88;0.80;;;;;;;16.28;100.00;92212.16;5080588;28;20028;-85
2023/10/27 02:13:38;;;;;;;1.75;0.60;;;;;;;16.44;100.00;92188.22;5098467;28;20030;-85
2023/10/27 02:16:04;;;;;;;4.35;0.47;;;;;;;16.70;100.00;92268.63;5098013;28;20023;-86
2023/10/27 02:18:29;;;;;;;5.57;0.73;;;;;;;16.44;100.00;92272.03;5097238;28;20046;-85
2023/10/27 02:20:55;;;;;;;3.13;0.70;;;;;;;16.32;100.00;92304.69;5080658;28;20020;-86
2023/10/27 02:23:20;;;;;;;2.20;0.60;;;;;;;16.34;100.00;92300.56;5080199;28;20020;-86
2023/10/27 02:25:46;;;;;;;8.07;0.60;;;;;;;15.84;100.00;92271.44;5080146;28;20350;-85
2023/10/27 02:28:30;;;;;;;2.80;0.60;;;;;;;15.69;100.00;92260.66;5096957;28;20125;-86
2023/10/27 02:30:55;;;;;;;5.30;1.15;;;;;;;15.07;100.00;92285.13;5096813;28;20028;-85
2023/10/27 02:36:24;;;;;;;2.42;0.50;;;;;;;15.53;100.00;92252.81;5097251;28;20089;-85
2023/10/27 02:38:50;;;;;;;0.60;0.20;;;;;;;15.72;100.00;92240.72;5077758;28;20452;-85
2023/10/27 02:41:15;;;;;;;3.65;0.55;;;;;;;15.61;100.00;92224.66;5077607;28;20111;-86
2023/10/27 02:43:40;;;;;;;2.92;0.43;;;;;;;15.23;100.00;92227.03;5076797;28;20170;-86
2023/10/27 02:46:06;;;;;;;4.88;0.80;;;;;;;15.05;100.00;92218.78;5076345;28;20138;-86
2023/10/27 02:48:31;;;;;;;3.80;0.70;;;;;;;14.98;100.00;92227.31;5093261;28;20052;-85
2023/10/27 02:50:57;;;;;;;3.70;0.47;;;;;;;14.76;100.00;92223.47;5061341;28;20032;-86
2023/10/27 02:53:23;;;;;;;1.15;0.20;;;;;;;14.78;100.00;92234.47;5096827;28;20031;-86
2023/10/27 02:55:51;;;;;;;0.40;0.13;;;;;;;14.79;100.00;92187.78;5080038;28;20314;-86
2023/10/27 02:58:17;;;;;;;2.00;0.25;;;;;;;14.66;100.00;92171.31;5079762;28;20020;-86
2023/10/27 03:00:42;;;;;;;1.65;0.30;;;;;;;14.64;100.00;92152.44;5096330;28;20020;-86
2023/10/27 03:03:27;;;;;;;4.05;0.70;;;;;;;14.72;100.00;92130.41;5096303;28;20440;-86
2023/10/27 03:05:53;;;;;;;1.17;0.17;;;;;;;14.60;100.00;92112.06;5076352;28;20063;-85
2023/10/27 03:08:18;;;;;;;1.13;0.20;;;;;;;14.39;100.00;92103.41;5059294;28;20067;-86
2023/10/27 03:10:43;;;;;;;72.18;2.97;;;;;;;14.46;100.00;92139.66;5075777;28;20036;-86
2023/10/27 03:13:09;;;;;;;3.28;0.50;;;;;;;14.55;100.00;92160.53;5059486;28;20077;-86
2023/10/27 03:15:38;;;;;;;0.65;0.30;;;;;;;14.64;100.00;92157.72;5075871;28;20039;-86
2023/10/27 03:18:03;;;;;;;1.17;0.47;;;;;;;14.76;100.00;92146.28;5078336;28;20437;-85
2023/10/27 03:20:29;;;;;;;5.03;0.40;;;;;;;14.84;100.00;92148.72;5084394;28;20070;-86
2023/10/27 03:23:13;;;;;;;0.57;0.28;;;;;;;14.82;100.00;92158.84;5091206;28;20416;-85
2023/10/27 03:25:38;;;;;;;0.60;0.20;;;;;;;14.65;100.00;92138.91;5094000;28;20031;-86
2023/10/27 03:28:03;;;;;;;1.35;0.40;;;;;;;14.70;100.00;92154.47;5089945;28;20442;-86
2023/10/27 03:30:29;;;;;;;1.75;0.35;;;;;;;14.66;100.00;92145.72;5094043;28;20035;-86
2023/10/27 03:33:14;;;;;;;3.78;0.70;;;;;;;14.58;100.00;92125.63;5095867;28;20023;-85
2023/10/27 03:35:42;;;;;;;0.98;0.57;;;;;;;14.48;100.00;92124.28;5095898;28;20065;-86
2023/10/27 03:43:58;;;;;;;0.98;0.50;;;;;;;14.45;100.00;92201.38;5096035;28;20472;-85
2023/10/27 03:46:23;;;;;;;4.60;0.52;;;;;;;14.55;100.00;92215.88;5095649;28;20031;-86
2023/10/27 03:48:49;;;;;;;0.30;0.20;;;;;;;14.63;100.00;92219.41;5096923;28;20055;-85
2023/10/27 03:51:33;;;;;;;2.60;0.20;;;;;;;14.93;100.00;92221.56;5095407;28;20031;-86
2023/10/27 03:54:18;;;;;;;6.53;0.52;;;;;;;14.90;100.00;92230.94;5095668;28;20024;-86
2023/10/27 03:56:43;;;;;;;2.17;0.50;;;;;;;14.77;100.00;92227.66;5096794;28;20110;-85
2023/10/27 03:59:28;;;;;;;1.40;0.40;;;;;;;14.91;100.00;92239.59;5096738;28;20066;-86
2023/10/27 04:01:54;;;;;;;1.40;0.40;;;;;;;14.74;100.00;92244.16;5096936;28;20094;-86
2023/10/27 04:04:19;;;;;;;3.92;0.77;;;;;;;14.89;100.00;92249.72;5095539;28;20431;-85
2023/10/27 04:06:45;;;;;;;4.28;0.50;;;;;;;14.67;100.00;92225.53;5095553;28;20111;-85
2023/10/27 04:09:11;;;;;;;1.08;0.43;;;;;;;14.65;100.00;92231.16;5095743;28;20169;-85
2023/10/27 04:11:36;;;;;;;0.47;0.30;;;;;;;14.79;100.00;92240.50;5095270;28;20122;-86
2023/10/27 04:14:04;;;;;;;4.65;1.00;;;;;;;14.71;100.00;92252.72;5078518;28;20113;-85
2023/10/27 04:16:30;;;;;;;1.15;0.30;;;;;;;14.83;100.00;92236.81;5095416;28;20027;-86
2023/10/27 04:19:14;;;;;;;4.93;0.68;;;;;;;14.90;100.00;92227.50;5095407;28;20016;-85
2023/10/27 04:21:39;;;;;;;3.53;0.50;;;;;;;15.04;100.00;92208.59;5095261;28;20024;-86
2023/10/27 04:24:05;;;;;;;4.43;0.40;;;;;;;14.79;100.00;92212.28;5078463;28;20039;-85
2023/10/27 04:31:58;;;;;;;1.92;0.50;;;;;;;14.56;100.00;92230.56;5096254;28;20080;-86
2023/10/27 04:34:24;;;;;;;1.48;0.60;;;;;;;14.49;100.00;92218.03;5095005;28;20024;-85
2023/10/27 04:36:49;;;;;;;9.50;1.00;;;;;;;14.80;100.00;92252.56;5078890;28;20024;-85
2023/10/27 04:39:14;;;;;;;6.82;1.45;;;;;;;15.53;100.00;92221.16;5096389;28;20031;-85
2023/10/27 04:41:40;;;;;;;4.85;1.50;;;;;;;16.31;100.00;92208.03;5097555;28;20414;-85
2023/10/27 04:44:05;;;;;;;8.13;1.35;;;;;;;16.27;100.00;92200.06;5079584;28;20024;-85
2023/10/27 04:46:31;;;;;;;10.52;1.88;;;;;;;16.30;100.00;92209.16;5079308;28;20257;-85
2023/10/27 04:49:00;;;;;;;3.90;1.08;;;;;;;16.23;100.00;92209.81;5079086;28;20028;-85
2023/10/27 04:51:44;;;;;;;15.98;1.52;;;;;;;15.86;100.00;92232.25;5079646;28;20128;-85
2023/10/27 04:54:10;;;;;;;4.90;1.02;;;;;;;15.84;100.00;92216.75;5079869;28;20031;-85
2023/10/27 04:56:54;;;;;;;9.93;1.63;;;;;;;15.91;100.00;92223.31;5062033;28;20433;-85
2023/10/27 04:59:20;;;;;;;11.77;1.48;;;;;;;15.86;100.00;92224.31;5083710;28;20044;-86
2023/10/27 05:01:45;;;;;;;8.90;1.20;;;;;;;15.80;100.00;92225.75;5084135;28;20036;-85
2023/10/27 05:04:11;;;;;;;3.75;1.08;;;;;;;14.96;100.00;92226.16;5096635;28;20027;-88
2023/10/27 05:06:36;;;;;;;6.20;1.08;;;;;;;15.07;100.00;92234.25;5098894;28;20047;-89
2023/10/27 05:09:01;;;;;;;5.65;1.20;;;;;;;15.16;100.00;92237.47;5081864;28;20034;-88
2023/10/27 05:16:56;;;;;;;4.95;1.10;;;;;;;14.81;100.00;92246.94;5098874;28;20534;-88
2023/10/27 05:22:05;;;;;;;6.70;1.15;;;;;;;15.28;100.00;92241.81;5098713;28;20023;-88
2023/10/27 05:24:34;;;;;;;6.47;1.48;;;;;;;15.59;100.00;92250.66;5097412;28;20031;-88
2023/10/27 05:27:00;;;;;;;13.05;1.20;;;;;;;15.57;100.00;92252.13;5098502;28;20024;-88
2023/10/27 05:29:26;;;;;;;11.23;1.23;;;;;;;15.45;100.00;92251.19;5098364;28;20028;-88
2023/10/27 05:31:51;;;;;;;7.80;1.15;;;;;;;15.87;100.00;92262.06;5098240;28;20028;-88
2023/10/27 05:34:17;;;;;;;6.95;1.25;;;;;;;15.78;100.00;92254.34;5098580;28;20042;-87
2023/10/27 05:36:42;;;;;;;10.85;1.52;;;;;;;16.07;100.00;92265.44;5081709;28;20020;-88
2023/10/27 05:39:08;;;;;;;4.63;0.88;;;;;;;16.50;100.00;92279.31;5081584;28;20046;-89
2023/10/27 05:41:33;;;;;;;8.98;1.40;;;;;;;16.51;100.00;92278.19;5098085;28;20045;-89
2023/10/27 05:43:59;;;;;;;6.97;1.25;;;;;;;16.33;100.00;92275.28;5098216;28;20328;-88
2023/10/27 05:46:24;;;;;;;6.95;1.45;;;;;;;16.20;100.00;92274.69;5081485;28;20028;-88
2023/10/27 05:48:49;;;;;;;9.60;0.98;;;;;;;16.13;100.00;92276.44;5098372;28;20032;-89
2023/10/27 05:51:15;;;;;;;6.72;1.23;;;;;;;16.30;100.00;92283.91;5080738;28;20020;-89
2023/10/27 05:53:41;;;;;;;4.32;0.85;;;;;;;16.29;100.00;92271.81;5099223;28;20336;-89
2023/10/27 05:56:06;;;;;;;6.22;1.17;;;;;;;16.31;100.00;92277.50;5098171;28;20024;-88
2023/10/27 05:58:35;;;;;;;8.65;0.98;;;;;;;16.22;100.00;92306.03;5098023;28;20130;-88
2023/10/27 06:03:44;;;;;;;7.65;0.93;;;;;;;16.36;100.00;92284.38;5098057;28;20035;-89
2023/10/27 06:09:13;;;;;;;5.85;1.42;;;;;;;16.15;100.00;92293.47;5098631;28;20534;-88
2023/10/27 06:11:39;;;;;;;8.00;1.42;;;;;;;16.08;100.00;92301.31;5097411;28;20119;-89
2023/10/27 06:16:48;;;;;;;4.07;0.90;;;;;;;16.32;100.00;92323.97;5097816;28;20039;-88
2023/10/27 06:22:01;;;;;;;5.22;1.20;;;;;;;16.08;100.00;92354.88;5097604;28;20038;-88
2023/10/27 06:24:26;;;;;;;9.52;1.35;;;;;;;16.05;100.00;92352.16;5097407;28;20065;-88
2023/10/27 06:29:54;;;;;;;13.52;1.98;;;;;;;15.63;100.00;92357.06;5097558;28;20085;-89
2023/10/27 06:32:22;;;;;;;4.70;1.00;;;;;;;15.56;100.00;92375.41;5097028;28;20042;-88
2023/10/27 06:34:47;;;;;;;5.43;1.10;;;;;;;15.65;100.00;92372.56;5097254;28;20333;-88
2023/10/27 06:42:59;;;;;;;6.85;1.13;;;;;;;15.63;100.00;92367.59;5097193;28;20050;-88
2023/10/27 06:51:11;;;;;;;15.38;1.35;;;;;;;15.97;100.00;92383.75;5096989;28;20039;-88
2023/10/27 06:53:56;;;;;;;5.68;0.85;;;;;;;15.91;100.00;92384.38;5096755;28;20027;-88
2023/10/27 06:56:21;;;;;;;11.77;1.52;;;;;;;15.80;100.00;92386.81;5096807;28;20028;-88
2023/10/27 06:58:47;;;;;;;7.28;1.17;;;;;;;15.87;100.00;92392.19;5096977;28;20086;-89
2023/10/27 07:01:12;;;;;;;9.18;1.20;;;;;;;16.00;100.00;92389.44;5096607;28;20032;-88
2023/10/27 07:03:56;;;;;;;4.78;1.20;;;;;;;15.84;100.00;92398.94;5096310;28;20028;-89
2023/10/27 07:06:22;;;;;;;8.95;1.65;;;;;;;15.71;100.00;92391.53;5096618;28;20031;-89
2023/10/27 07:08:47;;;;;;;15.25;1.65;;;;;;;15.58;100.00;92402.22;5096762;28;20031;-89
2023/10/27 07:11:13;;;;;;;5.40;0.90;;;;;;;15.61;100.00;92409.44;5096569;28;20024;-89
2023/10/27 07:16:41;;;;;;;10.90;1.15;;;;;;;15.80;100.00;92406.03;5096745;28;20097;-88
2023/10/27 07:19:07;;;;;;;12.82;1.38;;;;;;;15.93;100.00;92400.63;5096649;28;20037;-88
2023/10/27 07:21:34;;;;;;;9.50;1.40;;;;;;;15.96;100.00;92403.34;5097428;28;20020;-89
2023/10/27 07:23:59;;;;;;;7.70;1.67;;;;;;;16.12;100.00;92410.41;5096319;28;20023;-89
2023/10/27 07:26:44;;;;;;;10.13;1.38;;;;;;;16.21;100.00;92413.63;5096332;28;20024;-89
2023/10/27 07:29:09;;;;;;;8.02;1.30;;;;;;;16.28;100.00;92425.41;5096321;28;20425;-89
2023/10/27 07:31:35;;;;;;;5.90;1.45;;;;;;;16.32;100.00;92431.53;5095853;28;20035;-89
2023/10/27 07:36:46;;;;;;;7.85;1.10;;;;;;;16.41;100.00;92455.84;5096635;28;20127;-89
2023/10/27 07:39:11;;;;;;;5.80;1.30;;;;;;;16.57;100.00;92455.75;5097295;28;20508;-89
2023/10/27 07:41:37;;;;;;;7.60;1.00;;;;;;;16.52;100.00;92458.69;5096165;28;20024;-89
2023/10/27 07:44:03;;;;;;;8.88;1.77;;;;;;;16.38;100.00;92459.94;5097202;28;20452;-89
2023/10/27 07:46:29;;;;;;;8.13;1.33;;;;;;;16.18;100.00;92479.59;5079089;28;20433;-88
2023/10/27 07:48:54;;;;;;;8.90;1.23;;;;;;;16.22;100.00;92497.03;5095934;28;20085;-88
2023/10/27 07:51:39;;;;;;;6.70;1.20;;;;;;;16.37;100.00;92489.38;5096955;28;20479;-89
2023/10/27 07:54:05;;;;;;;5.57;1.05;;;;;;;16.32;100.00;92495.72;5096792;28;20031;-89
2023/10/27 07:56:32;;;;;;;8.40;1.48;;;;;;;16.44;100.00;92478.19;5078989;28;20109;-89
2023/10/27 07:58:58;;;;;;;5.28;1.40;;;;;;;16.36;100.00;92483.31;5095631;28;20115;-88
2023/10/27 08:01:43;;;;;;;4.20;1.10;;;;;;;16.24;100.00;92480.81;5096085;28;20104;-88
2023/10/27 08:04:08;;;;;;;12.10;1.25;;;;;;;16.21;100.00;92470.97;5095847;28;20081;-88
2023/10/27 08:06:33;;;;;;;6.18;1.15;;;;;;;16.14;100.00;92468.16;5096144;28;20036;-89
2023/10/27 08:09:19;;;;;;;6.45;1.08;;;;;;;16.28;100.00;92471.09;5095804;28;20039;-89
2023/10/27 08:11:48;;;;;;;12.73;1.58;;;;;;;16.46;100.00;92489.16;5079099;28;20072;-88
2023/10/27 08:14:13;;;;;;;7.63;1.08;;;;;;;16.56;100.00;92477.25;5096158;28;20074;-88
2023/10/27 08:16:38;;;;;;;8.00;1.30;;;;;;;16.76;100.00;92504.41;5101036;28;20372;-88
2023/10/27 08:19:04;;;;;;;7.18;1.10;;;;;;;16.52;100.00;92501.75;5083176;28;20028;-88
2023/10/27 08:21:29;;;;;;;6.90;0.88;;;;;;;16.58;100.00;92494.28;5082988;28;20044;-89
2023/10/27 08:24:13;;;;;;;8.52;0.82;;;;;;;16.74;100.00;92496.81;5100049;28;20035;-88
2023/10/27 08:26:39;;;;;;;5.07;1.17;;;;;;;16.68;100.00;92519.38;5099661;28;20027;-89
2023/10/27 08:29:23;;;;;;;6.90;1.38;;;;;;;16.65;100.00;92512.16;5083109;28;20449;-89
2023/10/27 08:31:48;;;;;;;4.72;0.98;;;;;;;16.75;100.00;92524.78;5100300;28;20444;-88
2023/10/27 08:34:13;;;;;;;5.78;0.93;;;;;;;16.53;100.00;92524.41;5099550;28;20031;-89
2023/10/27 08:39:24;;;;;;;9.85;1.15;;;;;;;16.62;100.00;92536.63;5099705;28;20046;-88
2023/10/27 08:44:53;;;;;;;5.60;1.13;;;;;;;16.77;100.00;92527.09;5099556;28;20042;-88
2023/10/27 08:47:19;;;;;;;6.30;0.93;;;;;;;17.04;100.00;92537.78;5099314;28;20085;-88
2023/10/27 08:49:46;;;;;;;5.82;1.20;;;;;;;16.78;100.00;92537.31;5099286;28;20036;-88
2023/10/27 08:52:11;;;;;;;3.22;0.90;;;;;;;16.70;100.00;92537.53;5098897;28;20119;-89
2023/10/27 08:54:39;;;;;;;6.53;1.17;;;;;;;16.84;100.00;92555.53;5099488;28;20038;-88
2023/10/27 08:57:05;;;;;;;5.68;0.82;;;;;;;16.72;100.00;92545.91;5099435;28;20328;-88
2023/10/27 09:02:16;;;;;;;5.93;0.93;;;;;;;16.61;100.00;92567.63;5100042;28;20070;-88
2023/10/27 09:04:43;;;;;;;7.45;1.00;;;;;;;16.83;100.00;92581.22;5098955;28;20024;-88
2023/10/27 09:07:08;;;;;;;4.97;1.20;;;;;;;16.93;100.00;92562.13;5082175;28;20100;-88
2023/10/27 09:09:34;;;;;;;6.78;1.55;;;;;;;16.98;100.00;92573.53;5100089;28;20028;-89
2023/10/27 09:12:18;;;;;;;7.85;1.23;;;;;;;17.24;100.00;92584.22;5098670;28;20031;-88
2023/10/27 09:14:43;;;;;;;7.43;1.20;;;;;;;17.00;100.00;92572.09;5098778;28;20058;-89
2023/10/27 09:17:12;;;;;;;6.43;1.10;;;;;;;17.17;100.00;92580.69;5098690;28;20028;-88
2023/10/27 09:19:39;;;;;;;3.45;0.75;;;;;;;16.90;100.00;92585.88;5098727;28;20031;-88
2023/10/27 09:25:17;;;;;;;5.13;1.17;;;;;;;16.82;100.00;92598.97;5098759;28;20034;-89
2023/10/27 09:27:45;;;;;;;6.47;1.27;;;;;;;16.92;100.00;92615.38;5098754;28;20040;-89
2023/10/27 09:30:32;;;;;;;5.80;1.00;;;;;;;16.84;100.00;92617.13;5098663;28;20032;-88
2023/10/27 09:33:27;;;;;;;10.43;1.30;;;;;;;16.82;100.00;92619.34;5098905;28;20043;-89
2023/10/27 09:35:53;;;;;;;9.55;1.35;;;;;;;16.74;100.00;92633.56;5093891;28;20047;-89
2023/10/27 09:38:20;;;;;;;5.20;1.45;;;;;;;16.64;100.00;92632.22;5098938;28;20040;-89
2023/10/27 09:40:46;;;;;;;11.05;1.13;;;;;;;16.75;100.00;92633.22;5097886;28;20028;-89
2023/10/27 09:43:17;;;;;;;7.25;1.30;;;;;;;17.03;100.00;92640.19;5081605;28;20032;-88
2023/10/27 09:46:09;;;;;;;5.90;1.33;;;;;;;17.10;100.00;92635.03;5098412;28;20043;-89
2023/10/27 09:48:35;;;;;;;9.73;1.10;;;;;;;16.87;100.00;92648.19;5099271;28;20023;-89
2023/10/27 09:51:07;;;;;;;8.48;1.50;;;;;;;17.14;100.00;92658.88;5098109;28;20341;-88
2023/10/27 09:54:10;;;;;;;6.75;1.00;;;;;;;17.13;100.00;92661.91;5098294;28;20084;-89
2023/10/27 09:56:36;;;;;;;6.20;0.95;;;;;;;17.43;100.00;92666.59;5098918;28;20073;-89
2023/10/27 09:59:02;;;;;;;8.02;1.10;;;;;;;17.61;100.00;92674.84;5098399;28;20032;-89
2023/10/27 10:01:28;;;;;;;8.32;1.33;;;;;;;17.40;100.00;92675.22;5098416;28;20020;-89
2023/10/27 10:03:53;;;;;;;7.28;1.10;;;;;;;17.37;100.00;92693.34;5099329;28;20418;-89
2023/10/27 10:06:38;;;;;;;6.00;1.17;;;;;;;17.20;100.00;92688.47;5097836;28;20026;-89
2023/10/27 10:09:14;;;;;;;8.68;1.63;;;;;;;17.18;100.00;92669.53;5097688;28;20329;-89
2023/10/27 10:11:55;;;;;;;7.15;1.20;;;;;;;17.48;100.00;92676.88;5097617;28;20032;-89
2023/10/27 10:20:44;;;;;;;10.15;1.50;;;;;;;17.20;100.00;92707.78;5097794;28;20038;-88
2023/10/27 10:23:37;;;;;;;7.88;1.02;;;;;;;17.07;100.00;92724.91;5097103;28;20047;-89
2023/10/27 10:26:22;;;;;;;7.85;1.10;;;;;;;16.69;100.00;92695.44;5098308;28;20028;-88
2023/10/27 10:29:05;;;;;;;6.35;1.00;;;;;;;16.59;100.00;92709.19;5098128;28;20126;-88
2023/10/27 10:34:34;;;;;;;6.60;1.40;;;;;;;16.74;100.00;92728.75;5097463;28;20039;-88
2023/10/27 10:40:30;;;;;;;5.60;1.60;;;;;;;16.42;100.00;92713.75;5098041;28;20039;-88
2023/10/27 10:43:19;;;;;;;7.47;1.20;;;;;;;16.49;100.00;92710.50;5097013;28;20028;-88
2023/10/27 10:45:50;;;;;;;7.20;1.20;;;;;;;16.36;100.00;92723.06;5096908;28;20328;-87
2023/10/27 10:48:16;;;;;;;7.03;1.05;;;;;;;16.57;100.00;92732.56;5097016;28;20056;-87
2023/10/27 10:50:43;;;;;;;7.90;1.08;;;;;;;16.53;100.00;92730.59;5096790;28;20341;-87
2023/10/27 10:53:31;;;;;;;7.40;1.15;;;;;;;16.54;100.00;92740.06;5096872;28;20111;-87
2023/10/27 10:56:15;;;;;;;6.13;1.48;;;;;;;16.52;100.00;92731.72;5096814;28;20039;-87
2023/10/27 10:58:41;;;;;;;10.43;1.40;;;;;;;16.63;100.00;92733.81;5096764;28;20027;-88
2023/10/27 11:01:15;;;;;;;7.05;1.25;;;;;;;16.65;100.00;92735.00;5096881;28;20024;-88
2023/10/27 11:03:54;;;;;;;10.18;1.42;;;;;;;16.79;100.00;92737.19;5079771;28;20031;-88
2023/10/27 11:06:24;;;;;;;10.52;1.42;;;;;;;17.16;100.00;92720.19;5097235;28;20024;-87
2023/10/27 11:08:49;;;;;;;7.88;1.75;;;;;;;17.08;100.00;92727.22;5079680;28;20028;-88
2023/10/27 11:11:18;;;;;;;7.32;1.10;;;;;;;17.21;100.00;92730.47;5096419;28;20036;-87
2023/10/27 11:16:33;;;;;;;9.07;1.50;;;;;;;17.28;100.00;92723.78;5096720;28;20035;-88
2023/10/27 11:19:02;;;;;;;12.32;1.38;;;;;;;16.85;100.00;92719.16;5079747;28;20371;-88
2023/10/27 11:21:29;;;;;;;7.70;1.40;;;;;;;17.40;100.00;92723.63;5080094;28;20024;-87
2023/10/27 11:23:55;;;;;;;11.35;1.20;;;;;;;17.44;100.00;92707.81;5096403;28;20023;-87
2023/10/27 11:26:23;;;;;;;8.05;1.30;;;;;;;17.15;100.00;92712.59;5096670;28;20042;-87
2023/10/27 11:28:48;;;;;;;7.25;1.65;;;;;;;17.58;100.00;92720.56;5095926;28;20436;-87
2023/10/27 11:31:25;;;;;;;9.32;1.45;;;;;;;17.75;100.00;92706.06;5096253;28;20128;-87
2023/10/27 11:33:56;;;;;;;9.13;1.70;;;;;;;17.76;100.00;92712.91;5096269;28;20034;-87
2023/10/27 11:36:22;;;;;;;6.78;1.17;;;;;;;17.20;100.00;92718.38;5096202;28;20040;-87
2023/10/27 11:38:47;;;;;;;8.90;1.52;;;;;;;17.26;100.00;92716.22;5079461;28;20032;-89
2023/10/27 11:41:12;;;;;;;9.48;1.52;;;;;;;17.45;100.00;92739.25;5096000;28;20035;-87
2023/10/27 11:46:23;;;;;;;12.68;2.03;;;;;;;17.01;100.00;92736.91;5096245;28;20039;-87
2023/10/27 11:48:49;;;;;;;9.00;1.50;;;;;;;17.33;100.00;92739.41;5078789;28;20024;-88
2023/10/27 11:51:14;;;;;;;10.93;1.83;;;;;;;17.43;100.00;92740.72;5095689;28;20035;-87
2023/10/27 11:53:44;;;;;;;5.45;1.17;;;;;;;17.32;100.00;92732.56;5095916;28;20024;-87
2023/10/27 11:56:28;;;;;;;10.90;1.48;;;;;;;17.27;100.00;92754.00;5096140;28;20433;-88
2023/10/27 11:58:54;;;;;;;8.70;1.73;;;;;;;17.14;100.00;92748.09;5075763;28;20043;-87
2023/10/27 12:04:25;;;;;;;10.38;1.67;;;;;;;17.34;100.00;92738.28;5093268;28;20119;-88
2023/10/27 12:06:52;;;;;;;10.07;1.63;;;;;;;17.15;100.00;92739.81;5094946;28;20052;-88
2023/10/27 12:09:18;;;;;;;11.93;1.85;;;;;;;17.03;100.00;92748.66;5076767;28;20111;-88
2023/10/27 12:11:43;;;;;;;13.63;1.33;;;;;;;17.47;100.00;92734.38;5076460;28;20024;-87
2023/10/27 12:14:11;;;;;;;13.48;1.30;;;;;;;17.88;100.00;92738.47;5087584;28;20417;-85
2023/10/27 12:16:55;;;;;;;10.77;1.77;;;;;;;18.15;100.00;92741.94;5096497;28;20055;-86
2023/10/27 12:19:22;;;;;;;11.80;1.80;;;;;;;18.51;100.00;92741.72;5095796;28;20111;-87
2023/10/27 12:21:48;;;;;;;11.52;2.10;;;;;;;18.42;100.00;92741.19;5097601;28;20049;-86
2023/10/27 12:24:15;;;;;;;12.88;3.08;;;;;;;18.09;100.00;92744.13;5096192;28;20063;-87
2023/10/27 12:26:59;;;;;;;7.28;1.15;;;;;;;18.53;100.00;92744.03;5096928;28;20020;-87
2023/10/27 12:29:26;;;;;;;11.15;1.83;;;;;;;18.34;100.00;92737.69;5096576;28;20024;-86
2023/10/27 12:31:52;;;;;;;12.07;1.83;;;;;;;18.29;100.00;92745.94;5095118;28;20131;-86
2023/10/27 12:34:36;;;;;;;8.35;1.83;;;;;;;17.86;100.00;92748.63;5095574;28;20051;-87
2023/10/27 12:37:02;;;;;;;11.50;1.70;;;;;;;18.16;100.00;92758.63;5096503;28;20032;-86
2023/10/27 12:39:28;;;;;;;7.47;1.70;;;;;;;18.47;100.00;92762.88;5077421;28;20123;-85
2023/10/27 12:41:54;;;;;;;8.75;2.08;;;;;;;18.18;100.00;92762.44;5094714;28;20024;-86
2023/10/27 12:44:20;;;;;;;7.15;1.63;;;;;;;18.27;100.00;92764.84;5094288;28;20051;-87
2023/10/27 12:46:45;;;;;;;12.75;1.40;;;;;;;18.19;100.00;92769.28;5095318;28;20020;-87
2023/10/27 12:49:29;;;;;;;10.05;1.30;;;;;;;18.01;100.00;92768.19;5078470;28;20118;-87
2023/10/27 12:54:38;;;;;;;12.48;1.77;;;;;;;18.17;100.00;92760.91;5095372;28;20352;-87
2023/10/27 12:57:04;;;;;;;5.93;1.23;;;;;;;17.84;100.00;92770.19;5095334;28;20017;-86
2023/10/27 12:59:30;;;;;;;12.00;2.20;;;;;;;17.37;100.00;92759.53;5095046;28;20332;-86
2023/10/27 13:04:39;;;;;;;7.78;1.45;;;;;;;17.17;100.00;92765.94;5099240;28;20051;-87
2023/10/27 13:07:05;;;;;;;7.22;1.40;;;;;;;16.82;100.00;92768.25;5100077;28;20028;-87
2023/10/27 13:09:31;;;;;;;12.50;1.98;;;;;;;16.73;100.00;92758.97;5098882;28;20433;-86
2023/10/27 13:11:57;;;;;;;4.95;1.05;;;;;;;16.62;100.00;92775.38;5098370;28;20028;-85